createdAt,value
2023-05-29T00:00:44.987Z,541.00
2023-05-29T00:01:45.000Z,538.00
2023-05-29T00:02:45.065Z,540.00
2023-05-29T00:03:45.156Z,534.00
2023-05-29T00:04:45.081Z,540.00
2023-05-29T00:05:45.036Z,537.00
2023-05-29T00:06:45.053Z,544.00
2023-05-29T00:07:45.108Z,541.00
2023-05-29T00:08:45.114Z,542.00
2023-05-29T00:09:45.102Z,543.00
2023-05-29T00:10:45.112Z,539.00
2023-05-29T00:11:45.127Z,543.00
2023-05-29T00:12:45.147Z,537.00
2023-05-29T00:13:45.189Z,534.00
2023-05-29T00:14:45.185Z,541.00
2023-05-29T00:15:45.178Z,538.00
2023-05-29T00:16:45.359Z,538.00
2023-05-29T00:17:45.203Z,542.00
2023-05-29T00:18:45.208Z,541.00
2023-05-29T00:19:45.236Z,542.00
2023-05-29T00:20:45.302Z,538.00
2023-05-29T00:21:45.268Z,539.00
2023-05-29T00:22:45.268Z,534.00
2023-05-29T00:23:46.558Z,542.00
2023-05-29T00:24:45.339Z,534.00
2023-05-29T00:25:45.343Z,541.00
2023-05-29T00:26:45.311Z,540.00
2023-05-29T00:27:45.413Z,542.00
2023-05-29T00:28:45.369Z,536.00
2023-05-29T00:29:45.425Z,538.00
2023-05-29T00:30:45.426Z,537.00
2023-05-29T00:31:45.444Z,537.00
2023-05-29T00:32:45.448Z,538.00
2023-05-29T00:33:45.465Z,538.00
2023-05-29T00:34:45.500Z,538.00
2023-05-29T00:35:45.511Z,541.00
2023-05-29T00:36:45.533Z,544.00
2023-05-29T00:37:45.543Z,541.00
2023-05-29T00:38:45.531Z,534.00
2023-05-29T00:39:45.581Z,536.00
2023-05-29T00:40:45.577Z,533.00
2023-05-29T00:41:45.733Z,535.00
2023-05-29T00:42:46.193Z,532.00
2023-05-29T00:43:45.683Z,534.00
2023-05-29T00:44:45.689Z,538.00
2023-05-29T00:45:45.779Z,535.00
2023-05-29T00:46:45.726Z,535.00
2023-05-29T00:47:45.837Z,538.00
2023-05-29T00:48:46.672Z,534.00
2023-05-29T00:49:45.819Z,537.00
2023-05-29T00:50:45.829Z,539.00
2023-05-29T00:51:45.882Z,540.00
2023-05-29T00:52:45.905Z,538.00
2023-05-29T00:53:45.955Z,533.00
2023-05-29T00:54:45.954Z,533.00
2023-05-29T00:55:45.966Z,534.00
2023-05-29T00:56:45.975Z,532.00
2023-05-29T00:57:46.000Z,540.00
2023-05-29T00:58:46.064Z,538.00
2023-05-29T00:59:46.108Z,533.00
2023-05-29T01:00:46.095Z,539.00
2023-05-29T01:01:46.141Z,534.00
2023-05-29T01:02:46.440Z,537.00
2023-05-29T01:03:46.260Z,539.00
2023-05-29T01:04:46.163Z,537.00
2023-05-29T01:05:46.237Z,535.00
2023-05-29T01:06:46.226Z,534.00
2023-05-29T01:07:46.242Z,534.00
2023-05-29T01:08:46.262Z,535.00
2023-05-29T01:09:46.297Z,534.00
2023-05-29T01:10:46.299Z,534.00
2023-05-29T01:11:46.330Z,536.00
2023-05-29T01:12:46.353Z,535.00
2023-05-29T01:13:46.403Z,538.00
2023-05-29T01:14:46.433Z,541.00
2023-05-29T01:15:46.497Z,534.00
2023-05-29T01:16:46.481Z,532.00
2023-05-29T01:17:46.526Z,534.00
2023-05-29T01:18:46.523Z,533.00
2023-05-29T01:19:46.572Z,534.00
2023-05-29T01:20:46.696Z,533.00
2023-05-29T01:21:46.614Z,531.00
2023-05-29T01:22:46.611Z,536.00
2023-05-29T01:23:46.680Z,537.00
2023-05-29T01:24:46.685Z,531.00
2023-05-29T01:25:46.695Z,538.00
2023-05-29T01:26:46.704Z,533.00
2023-05-29T01:27:46.751Z,532.00
2023-05-29T01:28:46.774Z,531.00
2023-05-29T01:29:46.822Z,533.00
2023-05-29T01:30:46.852Z,530.00
2023-05-29T01:31:46.966Z,530.00
2023-05-29T01:32:47.016Z,534.00
2023-05-29T01:33:46.934Z,534.00
2023-05-29T01:34:46.980Z,532.00
2023-05-29T01:35:46.997Z,538.00
2023-05-29T01:36:47.040Z,532.00
2023-05-29T01:37:47.069Z,535.00
2023-05-29T01:38:47.109Z,538.00
2023-05-29T01:39:47.155Z,538.00
2023-05-29T01:40:47.192Z,536.00
2023-05-29T01:41:47.265Z,538.00
2023-05-29T01:42:47.270Z,533.00
2023-05-29T01:43:47.318Z,531.00
2023-05-29T01:44:47.322Z,536.00
2023-05-29T01:45:47.392Z,535.00
2023-05-29T01:46:47.412Z,528.00
2023-05-29T01:47:47.432Z,535.00
2023-05-29T01:48:47.450Z,535.00
2023-05-29T01:49:47.521Z,542.00
2023-05-29T01:50:47.536Z,532.00
2023-05-29T01:51:47.592Z,535.00
2023-05-29T01:52:47.620Z,524.00
2023-05-29T01:53:47.694Z,537.00
2023-05-29T01:54:47.703Z,534.00
2023-05-29T01:55:47.767Z,536.00
2023-05-29T01:56:47.764Z,535.00
2023-05-29T01:57:47.826Z,536.00
2023-05-29T01:58:47.899Z,538.00
2023-05-29T01:59:47.888Z,541.00
2023-05-29T02:00:48.024Z,528.00
2023-05-29T02:01:47.980Z,535.00
2023-05-29T02:02:48.027Z,530.00
2023-05-29T02:03:48.097Z,539.00
2023-05-29T02:04:48.099Z,534.00
2023-05-29T02:05:48.184Z,535.00
2023-05-29T02:06:48.192Z,537.00
2023-05-29T02:07:48.256Z,532.00
2023-05-29T02:08:49.145Z,528.00
2023-05-29T02:09:48.301Z,531.00
2023-05-29T02:10:48.315Z,531.00
2023-05-29T02:11:48.378Z,536.00
2023-05-29T02:12:48.505Z,538.00
2023-05-29T02:13:48.460Z,531.00
2023-05-29T02:14:48.482Z,537.00
2023-05-29T02:15:48.517Z,534.00
2023-05-29T02:16:48.663Z,536.00
2023-05-29T02:17:48.717Z,531.00
2023-05-29T02:18:48.679Z,531.00
2023-05-29T02:19:48.713Z,534.00
2023-05-29T02:20:49.068Z,530.00
2023-05-29T02:21:48.806Z,531.00
2023-05-29T02:22:48.867Z,531.00
2023-05-29T02:23:48.894Z,529.00
2023-05-29T02:24:48.900Z,535.00
2023-05-29T02:25:48.929Z,529.00
2023-05-29T02:26:49.004Z,530.00
2023-05-29T02:27:48.997Z,529.00
2023-05-29T02:28:49.045Z,532.00
2023-05-29T02:29:49.102Z,531.00
2023-05-29T02:30:49.133Z,529.00
2023-05-29T02:31:49.214Z,533.00
2023-05-29T02:32:49.276Z,529.00
2023-05-29T02:33:49.315Z,529.00
2023-05-29T02:34:49.347Z,530.00
2023-05-29T02:35:49.398Z,534.00
2023-05-29T02:36:49.431Z,541.00
2023-05-29T02:37:49.469Z,532.00
2023-05-29T02:38:49.539Z,529.00
2023-05-29T02:39:49.594Z,528.00
2023-05-29T02:40:49.585Z,528.00
2023-05-29T02:41:49.665Z,531.00
2023-05-29T02:42:49.715Z,532.00
2023-05-29T02:43:49.788Z,536.00
2023-05-29T02:44:49.773Z,531.00
2023-05-29T02:45:49.891Z,529.00
2023-05-29T02:46:52.567Z,532.00
2023-05-29T02:47:49.945Z,538.00
2023-05-29T02:48:49.891Z,536.00
2023-05-29T02:49:49.881Z,538.00
2023-05-29T02:50:49.866Z,531.00
2023-05-29T02:51:49.875Z,532.00
2023-05-29T02:52:49.875Z,530.00
2023-05-29T02:53:49.826Z,536.00
2023-05-29T02:54:49.832Z,528.00
2023-05-29T02:55:49.937Z,531.00
2023-05-29T02:56:49.798Z,536.00
2023-05-29T02:57:49.836Z,531.00
2023-05-29T02:58:49.829Z,533.00
2023-05-29T02:59:49.795Z,531.00
2023-05-29T03:00:49.878Z,528.00
2023-05-29T03:01:49.805Z,535.00
2023-05-29T03:02:49.852Z,530.00
2023-05-29T03:03:49.833Z,534.00
2023-05-29T03:04:49.760Z,532.00
2023-05-29T03:05:49.762Z,528.00
2023-05-29T03:06:49.735Z,530.00
2023-05-29T03:07:49.782Z,533.00
2023-05-29T03:08:49.712Z,530.00
2023-05-29T03:09:49.736Z,530.00
2023-05-29T03:10:49.756Z,526.00
2023-05-29T03:11:49.739Z,535.00
2023-05-29T03:12:49.698Z,528.00
2023-05-29T03:13:49.698Z,523.00
2023-05-29T03:14:49.692Z,526.00
2023-05-29T03:15:49.712Z,531.00
2023-05-29T03:16:49.671Z,525.00
2023-05-29T03:17:49.736Z,528.00
2023-05-29T03:18:49.643Z,537.00
2023-05-29T03:19:49.705Z,526.00
2023-05-29T03:20:49.963Z,532.00
2023-05-29T03:21:49.835Z,531.00
2023-05-29T03:22:49.931Z,533.00
2023-05-29T03:23:49.927Z,532.00
2023-05-29T03:24:49.986Z,533.00
2023-05-29T03:25:50.071Z,525.00
2023-05-29T03:26:50.113Z,529.00
2023-05-29T03:27:50.216Z,530.00
2023-05-29T03:28:50.230Z,533.00
2023-05-29T03:29:50.306Z,527.00
2023-05-29T03:30:50.340Z,530.00
2023-05-29T03:31:50.455Z,528.00
2023-05-29T03:32:50.492Z,527.00
2023-05-29T03:33:50.509Z,530.00
2023-05-29T03:34:50.573Z,534.00
2023-05-29T03:35:50.635Z,530.00
2023-05-29T03:36:50.694Z,528.00
2023-05-29T03:37:50.695Z,532.00
2023-05-29T03:38:50.824Z,530.00
2023-05-29T03:39:50.826Z,530.00
2023-05-29T03:40:50.915Z,530.00
2023-05-29T03:41:50.971Z,528.00
2023-05-29T03:42:51.016Z,528.00
2023-05-29T03:43:51.121Z,531.00
2023-05-29T03:44:51.107Z,529.00
2023-05-29T03:45:51.238Z,529.00
2023-05-29T03:46:51.281Z,523.00
2023-05-29T03:47:51.381Z,529.00
2023-05-29T03:48:51.396Z,527.00
2023-05-29T03:49:51.447Z,522.00
2023-05-29T03:50:51.478Z,528.00
2023-05-29T03:51:51.508Z,528.00
2023-05-29T03:52:51.593Z,526.00
2023-05-29T03:53:51.661Z,534.00
2023-05-29T03:54:51.742Z,528.00
2023-05-29T03:55:51.785Z,527.00
2023-05-29T03:56:51.849Z,519.00
2023-05-29T03:57:51.930Z,522.00
2023-05-29T03:58:51.958Z,531.00
2023-05-29T03:59:52.262Z,528.00
2023-05-29T04:00:52.087Z,523.00
2023-05-29T04:01:52.156Z,527.00
2023-05-29T04:02:52.348Z,532.00
2023-05-29T04:03:52.348Z,527.00
2023-05-29T04:04:52.376Z,522.00
2023-05-29T04:05:52.422Z,515.00
2023-05-29T04:06:52.435Z,515.00
2023-05-29T04:07:56.375Z,507.00
2023-05-29T04:08:53.510Z,506.00
2023-05-29T04:09:52.487Z,495.00
2023-05-29T04:10:52.502Z,485.00
2023-05-29T04:11:52.473Z,469.00
2023-05-29T04:12:52.477Z,457.00
2023-05-29T04:13:52.459Z,500.00
2023-05-29T04:14:52.484Z,503.00
2023-05-29T04:15:52.447Z,504.00
2023-05-29T04:16:52.513Z,502.00
2023-05-29T04:17:52.504Z,500.00
2023-05-29T04:18:52.515Z,504.00
2023-05-29T04:19:52.567Z,498.00
2023-05-29T04:20:52.695Z,500.00
2023-05-29T04:21:52.679Z,501.00
2023-05-29T04:22:52.742Z,506.00
2023-05-29T04:23:52.738Z,502.00
2023-05-29T04:24:52.778Z,500.00
2023-05-29T04:25:53.756Z,501.00
2023-05-29T04:26:52.763Z,504.00
2023-05-29T04:27:52.822Z,500.00
2023-05-29T04:28:52.891Z,506.00
2023-05-29T04:29:52.941Z,500.00
2023-05-29T04:30:53.184Z,500.00
2023-05-29T04:31:53.010Z,505.00
2023-05-29T04:32:53.053Z,506.00
2023-05-29T04:33:53.015Z,503.00
2023-05-29T04:34:53.048Z,506.00
2023-05-29T04:35:53.041Z,506.00
2023-05-29T04:36:53.001Z,504.00
2023-05-29T04:37:53.051Z,517.00
2023-05-29T04:38:53.018Z,521.00
2023-05-29T04:39:53.051Z,517.00
2023-05-29T04:40:53.717Z,511.00
2023-05-29T04:41:53.173Z,508.00
2023-05-29T04:42:53.225Z,507.00
2023-05-29T04:43:53.258Z,502.00
2023-05-29T04:44:53.300Z,502.00
2023-05-29T04:45:53.369Z,504.00
2023-05-29T04:46:53.689Z,502.00
2023-05-29T04:47:53.490Z,503.00
2023-05-29T04:48:53.535Z,504.00
2023-05-29T04:49:53.538Z,502.00
2023-05-29T04:50:54.641Z,510.00
2023-05-29T04:51:53.592Z,504.00
2023-05-29T04:52:53.649Z,502.00
2023-05-29T04:53:53.658Z,504.00
2023-05-29T04:54:53.664Z,505.00
2023-05-29T04:55:53.679Z,504.00
2023-05-29T04:56:53.700Z,505.00
2023-05-29T04:57:53.697Z,504.00
2023-05-29T04:58:53.699Z,502.00
2023-05-29T04:59:53.746Z,505.00
2023-05-29T05:00:54.082Z,505.00
2023-05-29T05:01:53.916Z,505.00
2023-05-29T05:02:53.876Z,507.00
2023-05-29T05:03:53.945Z,506.00
2023-05-29T05:04:53.918Z,504.00
2023-05-29T05:05:53.996Z,504.00
2023-05-29T05:06:54.065Z,505.00
2023-05-29T05:07:54.115Z,503.00
2023-05-29T05:08:54.144Z,510.00
2023-05-29T05:09:54.185Z,508.00
2023-05-29T05:10:54.408Z,509.00
2023-05-29T05:11:54.322Z,506.00
2023-05-29T05:12:54.412Z,512.00
2023-05-29T05:13:54.489Z,504.00
2023-05-29T05:14:54.525Z,511.00
2023-05-29T05:15:54.608Z,506.00
2023-05-29T05:16:54.717Z,512.00
2023-05-29T05:17:54.703Z,508.00
2023-05-29T05:18:54.692Z,508.00
2023-05-29T05:19:54.775Z,509.00
2023-05-29T05:20:55.007Z,516.00
2023-05-29T05:21:54.888Z,510.00
2023-05-29T05:22:54.886Z,511.00
2023-05-29T05:23:58.835Z,510.00
2023-05-29T05:24:54.912Z,510.00
2023-05-29T05:25:54.877Z,511.00
2023-05-29T05:26:54.888Z,513.00
2023-05-29T05:27:54.928Z,512.00
2023-05-29T05:28:54.867Z,513.00
2023-05-29T05:29:54.878Z,512.00
2023-05-29T05:30:54.996Z,513.00
2023-05-29T05:31:54.899Z,515.00
2023-05-29T05:32:54.984Z,514.00
2023-05-29T05:33:54.823Z,515.00
2023-05-29T05:34:54.857Z,508.00
2023-05-29T05:35:54.866Z,515.00
2023-05-29T05:36:54.848Z,513.00
2023-05-29T05:37:54.960Z,514.00
2023-05-29T05:38:54.836Z,513.00
2023-05-29T05:39:54.805Z,517.00
2023-05-29T05:40:55.052Z,514.00
2023-05-29T05:41:54.773Z,513.00
2023-05-29T05:42:54.814Z,515.00
2023-05-29T05:43:54.784Z,514.00
2023-05-29T05:44:54.793Z,510.00
2023-05-29T05:45:54.815Z,515.00
2023-05-29T05:46:54.754Z,514.00
2023-05-29T05:47:54.789Z,511.00
2023-05-29T05:48:54.754Z,513.00
2023-05-29T05:49:54.722Z,511.00
2023-05-29T05:50:54.885Z,516.00
2023-05-29T05:51:54.747Z,510.00
2023-05-29T05:52:54.694Z,512.00
2023-05-29T05:53:54.689Z,510.00
2023-05-29T05:54:54.697Z,509.00
2023-05-29T05:55:54.693Z,507.00
2023-05-29T05:56:54.688Z,509.00
2023-05-29T05:57:54.700Z,502.00
2023-05-29T05:58:54.665Z,500.00
2023-05-29T05:59:54.673Z,509.00
2023-05-29T06:00:54.804Z,506.00
2023-05-29T06:01:54.638Z,506.00
2023-05-29T06:02:54.739Z,515.00
2023-05-29T06:03:54.694Z,502.00
2023-05-29T06:04:54.701Z,500.00
2023-05-29T06:05:54.602Z,511.00
2023-05-29T06:06:54.601Z,507.00
2023-05-29T06:07:54.626Z,504.00
2023-05-29T06:08:54.590Z,505.00
2023-05-29T06:09:54.574Z,510.00
2023-05-29T06:10:54.668Z,502.00
2023-05-29T06:11:54.565Z,507.00
2023-05-29T06:12:54.546Z,500.00
2023-05-29T06:13:54.615Z,502.00
2023-05-29T06:14:54.667Z,505.00
2023-05-29T06:15:54.685Z,504.00
2023-05-29T06:16:54.747Z,507.00
2023-05-29T06:17:54.755Z,507.00
2023-05-29T06:18:54.708Z,508.00
2023-05-29T06:19:54.748Z,503.00
2023-05-29T06:20:54.966Z,503.00
2023-05-29T06:21:54.804Z,500.00
2023-05-29T06:22:54.824Z,500.00
2023-05-29T06:23:54.837Z,500.00
2023-05-29T06:24:54.956Z,510.00
2023-05-29T06:25:54.896Z,507.00
2023-05-29T06:26:54.938Z,508.00
2023-05-29T06:27:54.947Z,500.00
2023-05-29T06:28:54.954Z,506.00
2023-05-29T06:29:54.970Z,501.00
2023-05-29T06:30:55.332Z,500.00
2023-05-29T06:31:55.047Z,507.00
2023-05-29T06:32:55.113Z,510.00
2023-05-29T06:33:55.076Z,509.00
2023-05-29T06:34:55.065Z,508.00
2023-05-29T06:35:55.105Z,504.00
2023-05-29T06:36:55.099Z,509.00
2023-05-29T06:37:55.133Z,504.00
2023-05-29T06:38:55.141Z,509.00
2023-05-29T06:39:55.237Z,509.00
2023-05-29T06:40:55.372Z,508.00
2023-05-29T06:41:55.164Z,504.00
2023-05-29T06:42:55.216Z,501.00
2023-05-29T06:43:55.219Z,500.00
2023-05-29T06:44:55.226Z,506.00
2023-05-29T06:45:55.240Z,502.00
2023-05-29T06:46:55.385Z,501.00
2023-05-29T06:47:55.341Z,506.00
2023-05-29T06:48:55.243Z,504.00
2023-05-29T06:49:55.239Z,500.00
2023-05-29T06:50:55.256Z,504.00
2023-05-29T06:51:55.266Z,502.00
2023-05-29T06:52:55.254Z,504.00
2023-05-29T06:53:55.214Z,504.00
2023-05-29T06:54:55.226Z,500.00
2023-05-29T06:55:55.441Z,510.00
2023-05-29T06:57:09.211Z,510.00
2023-05-29T06:57:56.280Z,511.00
2023-05-29T06:58:55.284Z,511.00
2023-05-29T06:59:55.276Z,511.00
2023-05-29T07:00:55.338Z,511.00
2023-05-29T07:01:55.229Z,508.00
2023-05-29T07:02:55.239Z,513.00
2023-05-29T07:03:55.324Z,510.00
2023-05-29T07:04:55.232Z,506.00
2023-05-29T07:05:55.189Z,508.00
2023-05-29T07:06:55.199Z,513.00
2023-05-29T07:07:55.205Z,511.00
2023-05-29T07:08:55.281Z,505.00
2023-05-29T07:09:55.710Z,509.00
2023-05-29T07:10:55.512Z,513.00
2023-05-29T07:11:55.622Z,518.00
2023-05-29T07:12:55.480Z,514.00
2023-05-29T07:13:55.543Z,513.00
2023-05-29T07:14:55.564Z,514.00
2023-05-29T07:15:55.603Z,516.00
2023-05-29T07:16:55.695Z,515.00
2023-05-29T07:17:55.826Z,524.00
2023-05-29T07:18:55.762Z,524.00
2023-05-29T07:19:55.800Z,521.00
2023-05-29T07:20:55.988Z,520.00
2023-05-29T07:21:55.880Z,519.00
2023-05-29T07:22:55.963Z,524.00
2023-05-29T07:23:55.949Z,520.00
2023-05-29T07:24:56.004Z,523.00
2023-05-29T07:25:56.005Z,523.00
2023-05-29T07:26:56.080Z,522.00
2023-05-29T07:27:56.084Z,522.00
2023-05-29T07:28:56.117Z,524.00
2023-05-29T07:29:56.140Z,523.00
2023-05-29T07:30:56.521Z,523.00
2023-05-29T07:31:56.253Z,526.00
2023-05-29T07:32:56.248Z,528.00
2023-05-29T07:33:56.272Z,521.00
2023-05-29T07:34:56.234Z,522.00
2023-05-29T07:35:56.283Z,528.00
2023-05-29T07:36:56.284Z,528.00
2023-05-29T07:37:56.333Z,529.00
2023-05-29T07:38:56.356Z,526.00
2023-05-29T07:39:56.344Z,527.00
2023-05-29T07:40:56.585Z,530.00
2023-05-29T07:41:56.384Z,534.00
2023-05-29T07:42:56.390Z,530.00
2023-05-29T07:43:56.427Z,529.00
2023-05-29T07:44:56.460Z,529.00
2023-05-29T07:45:56.467Z,532.00
2023-05-29T07:46:56.527Z,529.00
2023-05-29T07:47:56.522Z,528.00
2023-05-29T07:48:56.423Z,531.00
2023-05-29T07:49:56.451Z,533.00
2023-05-29T07:50:56.718Z,532.00
2023-05-29T07:51:56.539Z,541.00
2023-05-29T07:52:56.438Z,535.00
2023-05-29T07:53:56.490Z,539.00
2023-05-29T07:54:56.451Z,536.00
2023-05-29T07:55:56.465Z,536.00
2023-05-29T07:56:56.446Z,537.00
2023-05-29T07:57:56.431Z,537.00
2023-05-29T07:58:56.427Z,539.00
2023-05-29T07:59:56.450Z,539.00
2023-05-29T08:00:56.865Z,541.00
2023-05-29T08:01:56.519Z,541.00
2023-05-29T08:02:56.596Z,541.00
2023-05-29T08:03:56.754Z,545.00
2023-05-29T08:04:56.613Z,543.00
2023-05-29T08:05:56.660Z,541.00
2023-05-29T08:06:56.636Z,544.00
2023-05-29T08:07:56.665Z,549.00
2023-05-29T08:08:56.694Z,546.00
2023-05-29T08:09:56.685Z,552.00
2023-05-29T08:10:57.019Z,558.00
2023-05-29T08:11:56.893Z,551.00
2023-05-29T08:12:56.655Z,557.00
2023-05-29T08:13:56.713Z,554.00
2023-05-29T08:14:56.718Z,556.00
2023-05-29T08:15:56.742Z,558.00
2023-05-29T08:16:56.783Z,568.00
2023-05-29T08:17:56.833Z,553.00
2023-05-29T08:18:56.772Z,566.00
2023-05-29T08:19:56.843Z,575.00
2023-05-29T08:20:57.168Z,570.00
2023-05-29T08:21:56.815Z,566.00
2023-05-29T08:22:56.870Z,558.00
2023-05-29T08:23:56.909Z,570.00
2023-05-29T08:24:56.937Z,576.00
2023-05-29T08:25:56.988Z,573.00
2023-05-29T08:26:57.040Z,575.00
2023-05-29T08:27:57.116Z,577.00
2023-05-29T08:28:57.129Z,572.00
2023-05-29T08:29:57.171Z,566.00
2023-05-29T08:30:57.364Z,565.00
2023-05-29T08:31:57.410Z,574.00
2023-05-29T08:32:57.483Z,568.00
2023-05-29T08:33:57.405Z,572.00
2023-05-29T08:34:57.436Z,554.00
2023-05-29T08:35:57.518Z,565.00
2023-05-29T08:36:57.579Z,549.00
2023-05-29T08:37:57.624Z,555.00
2023-05-29T08:38:57.743Z,562.00
2023-05-29T08:39:57.755Z,565.00
2023-05-29T08:40:57.917Z,560.00
2023-05-29T08:42:00.397Z,560.00
2023-05-29T08:42:57.864Z,561.00
2023-05-29T08:43:57.880Z,573.00
2023-05-29T08:44:57.839Z,539.00
2023-05-29T08:45:57.849Z,557.00
2023-05-29T08:46:57.864Z,550.00
2023-05-29T08:47:57.928Z,547.00
2023-05-29T08:48:57.830Z,558.00
2023-05-29T08:49:57.814Z,554.00
2023-05-29T08:50:57.961Z,567.00
2023-05-29T08:51:57.788Z,549.00
2023-05-29T08:52:57.894Z,552.00
2023-05-29T08:53:57.805Z,553.00
2023-05-29T08:54:57.817Z,553.00
2023-05-29T08:55:57.761Z,543.00
2023-05-29T08:56:57.755Z,543.00
2023-05-29T08:57:57.763Z,556.00
2023-05-29T08:58:57.769Z,564.00
2023-05-29T08:59:57.750Z,555.00
2023-05-29T09:00:58.049Z,554.00
2023-05-29T09:01:57.828Z,533.00
2023-05-29T09:02:57.764Z,551.00
2023-05-29T09:03:57.776Z,538.00
2023-05-29T09:04:57.721Z,547.00
2023-05-29T09:05:57.728Z,540.00
2023-05-29T09:06:57.685Z,550.00
2023-05-29T09:07:57.709Z,552.00
2023-05-29T09:08:57.715Z,539.00
2023-05-29T09:09:57.665Z,550.00
2023-05-29T09:10:58.042Z,539.00
2023-05-29T09:11:57.663Z,541.00
2023-05-29T09:12:57.628Z,553.00
2023-05-29T09:13:57.655Z,549.00
2023-05-29T09:14:57.686Z,532.00
2023-05-29T09:15:57.693Z,551.00
2023-05-29T09:16:57.658Z,528.00
2023-05-29T09:17:57.632Z,549.00
2023-05-29T09:18:57.610Z,541.00
2023-05-29T09:19:57.597Z,534.00
2023-05-29T09:20:59.525Z,549.00
2023-05-29T09:21:57.586Z,549.00
2023-05-29T09:22:57.607Z,538.00
2023-05-29T09:23:57.574Z,550.00
2023-05-29T09:24:57.603Z,553.00
2023-05-29T09:25:57.554Z,548.00
2023-05-29T09:26:57.607Z,547.00
2023-05-29T09:27:57.532Z,548.00
2023-05-29T09:28:57.524Z,548.00
2023-05-29T09:29:57.537Z,547.00
2023-05-29T09:30:57.749Z,543.00
2023-05-29T09:31:57.525Z,515.00
2023-05-29T09:32:57.532Z,540.00
2023-05-29T09:33:57.488Z,529.00
2023-05-29T09:34:57.513Z,518.00
2023-05-29T09:35:57.666Z,525.00
2023-05-29T09:36:57.510Z,550.00
2023-05-29T09:37:57.502Z,535.00
2023-05-29T09:39:57.617Z,545.00
2023-05-29T09:40:57.607Z,508.00
2023-05-29T09:41:57.674Z,522.00
2023-05-29T09:42:57.738Z,544.00
2023-05-29T09:43:57.837Z,524.00
2023-05-29T09:44:57.827Z,543.00
2023-05-29T09:45:57.842Z,519.00
2023-05-29T09:46:57.949Z,519.00
2023-05-29T09:47:58.019Z,525.00
2023-05-29T09:48:57.968Z,512.00
2023-05-29T09:49:58.029Z,529.00
2023-05-29T09:50:58.086Z,519.00
2023-05-29T09:51:58.226Z,523.00
2023-05-29T09:52:58.162Z,525.00
2023-05-29T09:53:58.221Z,519.00
2023-05-29T09:54:58.265Z,516.00
2023-05-29T09:55:58.299Z,509.00
2023-05-29T09:56:58.330Z,509.00
2023-05-29T09:57:58.393Z,514.00
2023-05-29T09:58:58.448Z,520.00
2023-05-29T09:59:58.489Z,505.00
2023-05-29T10:00:58.507Z,500.00
2023-05-29T10:01:58.540Z,502.00
2023-05-29T10:02:58.708Z,515.00
2023-05-29T10:03:58.690Z,507.00
2023-05-29T10:04:58.714Z,500.00
2023-05-29T10:05:58.797Z,503.00
2023-05-29T10:06:58.775Z,521.00
2023-05-29T10:07:58.820Z,506.00
2023-05-29T10:08:59.412Z,510.00
2023-05-29T10:09:58.901Z,515.00
2023-05-29T10:10:58.956Z,521.00
2023-05-29T10:11:59.010Z,518.00
2023-05-29T10:12:59.040Z,508.00
2023-05-29T10:13:59.064Z,527.00
2023-05-29T10:14:59.190Z,516.00
2023-05-29T10:15:59.220Z,526.00
2023-05-29T10:16:59.483Z,527.00
2023-05-29T10:17:59.322Z,525.00
2023-05-29T10:18:59.267Z,521.00
2023-05-29T10:19:59.323Z,525.00
2023-05-29T10:20:59.490Z,537.00
2023-05-29T10:21:59.408Z,549.00
2023-05-29T10:22:59.434Z,534.00
2023-05-29T10:23:59.510Z,544.00
2023-05-29T10:24:59.519Z,530.00
2023-05-29T10:25:59.553Z,528.00
2023-05-29T10:26:59.563Z,524.00
2023-05-29T10:27:59.612Z,531.00
2023-05-29T10:28:59.656Z,544.00
2023-05-29T10:29:59.705Z,547.00
2023-05-29T10:30:59.739Z,546.00
2023-05-29T10:31:59.797Z,547.00
2023-05-29T10:32:59.855Z,556.00
2023-05-29T10:33:59.824Z,555.00
2023-05-29T10:34:59.859Z,535.00
2023-05-29T10:35:59.886Z,540.00
2023-05-29T10:36:59.960Z,536.00
2023-05-29T10:38:00.012Z,552.00
2023-05-29T10:39:00.007Z,528.00
2023-05-29T10:40:00.183Z,548.00
2023-05-29T10:41:00.160Z,560.00
2023-05-29T10:42:00.168Z,571.00
2023-05-29T10:43:00.256Z,544.00
2023-05-29T10:44:00.235Z,552.00
2023-05-29T10:45:00.257Z,571.00
2023-05-29T10:46:00.503Z,555.00
2023-05-29T10:47:00.407Z,552.00
2023-05-29T10:48:00.397Z,551.00
2023-05-29T10:49:00.402Z,551.00
2023-05-29T10:50:00.384Z,558.00
2023-05-29T10:51:00.454Z,564.00
2023-05-29T10:52:00.477Z,573.00
2023-05-29T10:53:00.543Z,554.00
2023-05-29T10:54:00.595Z,546.00
2023-05-29T10:55:00.633Z,562.00
2023-05-29T10:56:00.644Z,569.00
2023-05-29T10:57:00.652Z,567.00
2023-05-29T10:58:00.689Z,557.00
2023-05-29T10:59:00.734Z,564.00
2023-05-29T11:00:00.759Z,566.00
2023-05-29T11:01:00.787Z,574.00
2023-05-29T11:02:00.931Z,574.00
2023-05-29T11:03:00.917Z,557.00
2023-05-29T11:04:00.932Z,575.00
2023-05-29T11:05:00.941Z,581.00
2023-05-29T11:06:00.945Z,573.00
2023-05-29T11:07:01.029Z,565.00
2023-05-29T11:08:01.044Z,571.00
2023-05-29T11:09:01.070Z,567.00
2023-05-29T11:10:01.126Z,573.00
2023-05-29T11:11:01.144Z,572.00
2023-05-29T11:12:01.221Z,570.00
2023-05-29T11:13:01.192Z,573.00
2023-05-29T11:14:01.250Z,579.00
2023-05-29T11:15:01.286Z,574.00
2023-05-29T11:16:01.299Z,575.00
2023-05-29T11:17:01.328Z,585.00
2023-05-29T11:18:01.436Z,573.00
2023-05-29T11:19:01.457Z,590.00
2023-05-29T11:20:01.484Z,580.00
2023-05-29T11:21:01.463Z,577.00
2023-05-29T11:22:01.485Z,583.00
2023-05-29T11:23:01.547Z,589.00
2023-05-29T11:24:01.587Z,581.00
2023-05-29T11:25:01.626Z,579.00
2023-05-29T11:26:01.664Z,577.00
2023-05-29T11:27:01.704Z,597.00
2023-05-29T11:28:01.728Z,578.00
2023-05-29T11:29:01.794Z,581.00
2023-05-29T11:30:01.806Z,581.00
2023-05-29T11:31:01.874Z,581.00
2023-05-29T11:32:02.663Z,581.00
2023-05-29T11:33:02.074Z,579.00
2023-05-29T11:34:01.962Z,576.00
2023-05-29T11:35:01.958Z,582.00
2023-05-29T11:36:02.067Z,581.00
2023-05-29T11:37:02.052Z,583.00
2023-05-29T11:38:03.620Z,582.00
2023-05-29T11:39:02.128Z,583.00
2023-05-29T11:40:02.199Z,584.00
2023-05-29T11:41:02.259Z,584.00
2023-05-29T11:42:02.169Z,581.00
2023-05-29T11:43:02.221Z,586.00
2023-05-29T11:44:02.255Z,584.00
2023-05-29T11:45:02.266Z,588.00
2023-05-29T11:46:02.289Z,594.00
2023-05-29T11:47:02.374Z,584.00
2023-05-29T11:48:02.466Z,584.00
2023-05-29T11:49:02.331Z,587.00
2023-05-29T11:50:02.415Z,590.00
2023-05-29T11:51:06.454Z,591.00
2023-05-29T11:52:14.385Z,591.00
2023-05-29T11:53:03.421Z,592.00
2023-05-29T11:54:02.427Z,593.00
2023-05-29T11:55:02.401Z,596.00
2023-05-29T11:56:02.411Z,595.00
2023-05-29T11:57:02.423Z,601.00
2023-05-29T11:58:02.421Z,591.00
2023-05-29T11:59:02.363Z,594.00
2023-05-29T12:00:02.401Z,592.00
2023-05-29T12:01:02.368Z,593.00
2023-05-29T12:02:02.372Z,591.00
2023-05-29T12:03:02.392Z,591.00
2023-05-29T12:04:02.341Z,591.00
2023-05-29T12:05:02.412Z,597.00
2023-05-29T12:06:02.438Z,591.00
2023-05-29T12:07:02.321Z,595.00
2023-05-29T12:08:02.286Z,593.00
2023-05-29T12:09:02.297Z,593.00
2023-05-29T12:10:02.306Z,594.00
2023-05-29T12:11:02.268Z,590.00
2023-05-29T12:12:02.299Z,589.00
2023-05-29T12:13:02.369Z,591.00
2023-05-29T12:14:02.312Z,595.00
2023-05-29T12:15:02.266Z,592.00
2023-05-29T12:16:02.268Z,590.00
2023-05-29T12:17:02.280Z,597.00
2023-05-29T12:18:02.281Z,596.00
2023-05-29T12:19:02.293Z,590.00
2023-05-29T12:20:02.244Z,592.00
2023-05-29T12:21:02.239Z,587.00
2023-05-29T12:22:02.190Z,592.00
2023-05-29T12:23:02.208Z,600.00
2023-05-29T12:24:14.042Z,594.00
2023-05-29T12:25:03.210Z,594.00
2023-05-29T12:26:02.195Z,594.00
2023-05-29T12:27:02.183Z,595.00
2023-05-29T12:28:02.188Z,596.00
2023-05-29T12:29:02.205Z,600.00
2023-05-29T12:30:02.156Z,598.00